DNYO

Yola Airport

Airport
ICAO code
DNYO
IATA Code
YOL
Summary
ICAO Region
AFI
ICAO Territory
Location

Jimeta, Adamawa State

Serving
Yola
Elevation
612 ft
Coordinates
9° 15' 27" N , 12° 25' 49" E
KCC
Metar
Observation
DNYO 271400Z 00000KT CAVOK 39/19 Q1007
Station
Yola
Date/Time
2023-01-27 15:00:00
Wind direction
Wind speed
00 kts
Lowest cloud amount
clouds and visibility OK
Temperature
39°C
Dew point
19°C
Humidity
31%
QNH
1007 hPa
Weather condition
n/a

Yola Airport is an airport serving Yola, the capital of the Adamawa State of Nigeria. It is 5nm northwest of Yola.

Climatology

Tropical savanna climate (Köppen climate classification Aw)

Runways

Designator Length Width Surface Rops
13/31 1573 30 ASP No/No
17/35 2999 45 ASP No/No

Airport map

Aerial View

SKYbrary Partners:

Safety knowledge contributed by: